createdAt,value
2017-05-28T17:58:09.247Z,25.683639999999997
2017-05-28T17:58:44.136Z,25.621161999999998
2017-05-28T17:59:19.065Z,25.621161999999998
2017-05-28T17:59:54.055Z,25.558684
2017-05-28T18:00:29.117Z,25.558684
2017-05-28T18:01:03.070Z,25.558684
2017-05-28T18:01:38.297Z,25.621161999999998
2017-05-28T18:02:13.074Z,25.746118
2017-05-28T18:02:48.092Z,25.808595999999998
2017-05-28T18:03:23.210Z,25.871073999999997
2017-05-28T18:03:58.090Z,25.933552
2017-05-28T18:04:33.058Z,25.996029999999998
2017-05-28T18:05:08.079Z,26.058508
2017-05-28T18:05:43.071Z,25.933552
2017-05-28T18:06:18.080Z,25.808595999999998
2017-05-28T18:06:53.058Z,25.746118
2017-05-28T18:07:28.078Z,25.683639999999997
2017-05-28T18:08:03.090Z,25.621161999999998
2017-05-28T18:08:38.182Z,25.621161999999998
2017-05-28T18:09:13.059Z,25.621161999999998
2017-05-28T18:09:48.071Z,25.558684
2017-05-28T18:10:23.070Z,25.558684
2017-05-28T18:10:58.067Z,25.558684
2017-05-28T18:11:33.055Z,25.558684
2017-05-28T18:12:08.073Z,25.558684
2017-05-28T18:12:43.059Z,25.621161999999998
2017-05-28T18:13:18.078Z,25.558684
2017-05-28T18:13:53.225Z,25.558684
2017-05-28T18:14:28.088Z,25.496205999999997
2017-05-28T18:15:03.107Z,25.496205999999997
2017-05-28T18:15:38.110Z,25.433728
2017-05-28T18:16:13.086Z,25.496205999999997
2017-05-28T18:16:48.106Z,25.496205999999997
2017-05-28T18:17:23.093Z,25.433728
2017-05-28T18:17:58.082Z,25.433728
2017-05-28T18:18:33.080Z,25.433728
2017-05-28T18:19:08.111Z,25.496205999999997
2017-05-28T18:19:43.100Z,25.496205999999997
2017-05-28T18:20:19.117Z,25.496205999999997
2017-05-28T18:20:53.100Z,25.496205999999997
2017-05-28T18:21:28.092Z,25.496205999999997
2017-05-28T18:22:03.124Z,25.496205999999997
2017-05-28T18:22:38.134Z,25.496205999999997
2017-05-28T18:23:13.113Z,25.433728
2017-05-28T18:23:48.125Z,25.433728
2017-05-28T18:24:23.122Z,25.37125
2017-05-28T18:24:58.124Z,25.37125
2017-05-28T18:25:33.120Z,25.37125
2017-05-28T18:26:08.109Z,25.37125
2017-05-28T18:26:43.107Z,25.433728
2017-05-28T18:27:18.134Z,25.433728
2017-05-28T18:27:53.150Z,25.433728
2017-05-28T18:28:29.148Z,25.433728
2017-05-28T18:29:03.104Z,25.433728
2017-05-28T18:29:38.135Z,25.433728
2017-05-28T18:30:13.102Z,25.433728
2017-05-28T18:30:48.171Z,25.37125
2017-05-28T18:31:23.123Z,25.37125
2017-05-28T18:31:58.141Z,25.37125
2017-05-28T18:32:33.124Z,25.433728
2017-05-28T18:33:43.167Z,25.433728
2017-05-28T18:34:18.180Z,25.433728
2017-05-28T18:34:53.148Z,25.433728
2017-05-28T18:35:28.216Z,25.433728
2017-05-28T18:36:03.157Z,25.433728
2017-05-28T18:36:38.200Z,25.433728
2017-05-28T18:37:13.132Z,25.433728
2017-05-28T18:37:48.185Z,25.433728
2017-05-28T18:38:22.169Z,25.496205999999997
2017-05-28T18:38:57.171Z,25.496205999999997
2017-05-28T18:39:32.138Z,25.496205999999997
2017-05-28T18:40:07.157Z,25.496205999999997
2017-05-28T18:40:42.147Z,25.496205999999997
2017-05-28T18:41:17.168Z,25.433728
2017-05-28T18:41:52.162Z,25.433728
2017-05-28T18:42:28.178Z,25.433728
2017-05-28T18:43:05.178Z,25.433728
2017-05-28T18:43:37.158Z,25.37125
2017-05-28T18:44:12.142Z,25.37125
2017-05-28T18:44:47.151Z,25.37125
2017-05-28T18:45:22.145Z,25.37125
2017-05-28T18:45:57.176Z,25.37125
2017-05-28T18:46:33.189Z,25.37125
2017-05-28T18:47:07.211Z,25.308238
2017-05-28T18:47:42.185Z,25.308238
2017-05-28T18:48:17.198Z,25.37125
2017-05-28T18:48:52.155Z,25.37125
2017-05-28T18:49:27.172Z,25.37125
2017-05-28T18:50:02.377Z,25.433728
2017-05-28T18:50:37.321Z,25.37125
2017-05-28T18:51:12.157Z,25.37125
2017-05-28T18:51:47.281Z,25.37125
2017-05-28T18:52:22.387Z,25.37125
2017-05-28T18:52:57.182Z,25.37125
2017-05-28T18:53:32.377Z,25.37125
2017-05-28T18:54:07.188Z,25.37125
2017-05-28T18:54:42.187Z,25.37125
2017-05-28T18:55:17.182Z,25.308238
2017-05-28T18:55:52.182Z,25.308238
2017-05-28T18:56:27.188Z,25.308238
2017-05-28T18:57:02.397Z,25.37125
2017-05-28T18:57:37.194Z,25.37125
2017-05-28T18:58:12.171Z,25.308238
2017-05-28T18:58:47.193Z,25.308238
2017-05-28T18:59:23.189Z,25.308238
2017-05-28T18:59:57.252Z,25.308238
2017-05-28T19:00:32.179Z,25.308238
2017-05-28T19:01:07.197Z,25.308238
2017-05-28T19:01:42.198Z,25.308238
2017-05-28T19:02:17.222Z,25.245759999999997
2017-05-28T19:02:52.192Z,25.183282
2017-05-28T19:03:27.204Z,25.183282
2017-05-28T19:04:02.218Z,25.183282
2017-05-28T19:04:37.202Z,25.183282
2017-05-28T19:05:12.190Z,25.183282
2017-05-28T19:05:47.207Z,25.183282
2017-05-28T19:06:22.308Z,25.183282
2017-05-28T19:06:57.275Z,25.183282
2017-05-28T19:07:32.202Z,25.183282
2017-05-28T19:08:07.221Z,25.183282
2017-05-28T19:08:42.224Z,25.183282
2017-05-28T19:09:17.229Z,25.183282
2017-05-28T19:09:52.192Z,25.183282
2017-05-28T19:10:27.240Z,25.183282
2017-05-28T19:11:02.201Z,25.120804
2017-05-28T19:11:37.213Z,25.120804
2017-05-28T19:12:12.211Z,25.120804
2017-05-28T19:12:47.227Z,25.120804
2017-05-28T19:13:22.210Z,25.120804
2017-05-28T19:13:57.234Z,25.183282
2017-05-28T19:14:32.214Z,25.120804
2017-05-28T19:15:07.274Z,25.120804
2017-05-28T19:15:41.215Z,25.058325999999997
2017-05-28T19:16:16.251Z,24.995848
2017-05-28T19:16:51.331Z,24.995848
2017-05-28T19:17:26.223Z,25.058325999999997
2017-05-28T19:18:01.229Z,24.995848
2017-05-28T19:18:36.258Z,24.995848
2017-05-28T19:19:11.228Z,24.995848
2017-05-28T19:19:46.254Z,24.995848
2017-05-28T19:20:21.241Z,24.995848
2017-05-28T19:20:56.248Z,24.995848
2017-05-28T19:21:31.242Z,24.995848
2017-05-28T19:22:06.233Z,24.93337
2017-05-28T19:22:41.239Z,24.93337
2017-05-28T19:23:16.280Z,24.93337
2017-05-28T19:23:51.236Z,24.93337
2017-05-28T19:24:26.246Z,24.93337
2017-05-28T19:25:02.225Z,24.93337
2017-05-28T19:25:36.261Z,24.870891999999998
2017-05-28T19:26:11.407Z,24.808414
2017-05-28T19:26:46.287Z,24.808414
2017-05-28T19:27:21.238Z,24.808414
2017-05-28T19:27:56.236Z,24.808414
2017-05-28T19:28:31.250Z,24.808414
2017-05-28T19:29:06.343Z,24.808414
2017-05-28T19:29:41.241Z,24.808414
2017-05-28T19:30:16.279Z,24.745935999999997
2017-05-28T19:30:51.235Z,24.745935999999997
2017-05-28T19:31:26.258Z,24.745935999999997
2017-05-28T19:32:01.254Z,24.683457999999998
2017-05-28T19:32:36.367Z,24.683457999999998
2017-05-28T19:33:11.250Z,24.62098
2017-05-28T19:33:47.283Z,24.558501999999997
2017-05-28T19:34:21.259Z,24.558501999999997
2017-05-28T19:34:56.261Z,24.496024
2017-05-28T19:35:31.480Z,24.433546
2017-05-28T19:36:06.324Z,24.371067999999998
2017-05-28T19:36:41.269Z,24.371067999999998
2017-05-28T19:37:16.273Z,24.371067999999998
2017-05-28T19:37:51.372Z,24.30859
2017-05-28T19:38:26.265Z,24.30859
2017-05-28T19:39:01.250Z,24.30859
2017-05-28T19:39:36.282Z,24.30859
2017-05-28T19:40:11.305Z,24.30859
2017-05-28T19:40:46.279Z,24.30859
2017-05-28T19:41:21.271Z,24.246111999999997
2017-05-28T19:41:57.262Z,24.246111999999997
2017-05-28T19:42:31.347Z,24.246111999999997
2017-05-28T19:43:06.281Z,24.246111999999997
2017-05-28T19:43:41.270Z,24.183633999999998
2017-05-28T19:44:16.282Z,24.246111999999997
2017-05-28T19:44:51.271Z,24.246111999999997
2017-05-28T19:45:26.276Z,24.30859
2017-05-28T19:46:01.283Z,24.30859
2017-05-28T19:46:36.301Z,24.246111999999997
2017-05-28T19:47:11.274Z,24.121156
2017-05-28T19:47:46.286Z,24.121156
2017-05-28T19:48:21.267Z,24.121156
2017-05-28T19:48:56.287Z,24.058677999999997
2017-05-28T19:49:31.276Z,24.058677999999997
2017-05-28T19:50:06.288Z,23.996199999999998
2017-05-28T19:50:41.279Z,23.996199999999998
2017-05-28T19:51:16.315Z,23.996199999999998
2017-05-28T19:51:51.338Z,23.996199999999998
2017-05-28T19:52:26.333Z,23.996199999999998
2017-05-28T19:53:00.278Z,23.996199999999998
2017-05-28T19:53:35.402Z,23.996199999999998
2017-05-28T19:54:10.304Z,23.933722
2017-05-28T19:54:45.332Z,23.933722
2017-05-28T19:55:20.307Z,23.933722
2017-05-28T19:55:55.318Z,23.933722
2017-05-28T19:56:30.301Z,23.933722
2017-05-28T19:57:05.312Z,23.871243999999997
2017-05-28T19:57:41.335Z,23.871243999999997
2017-05-28T19:58:15.299Z,23.871243999999997
2017-05-28T19:58:50.418Z,23.871243999999997
2017-05-28T19:59:25.428Z,23.871243999999997
2017-05-28T20:00:00.299Z,23.871243999999997
2017-05-28T20:01:10.319Z,23.808766
2017-05-28T20:01:45.316Z,23.746288
2017-05-28T20:02:20.321Z,23.746288
2017-05-28T20:02:55.310Z,23.746288
2017-05-28T20:03:30.341Z,23.683809999999998
2017-05-28T20:04:05.319Z,23.683809999999998
2017-05-28T20:04:40.341Z,23.683809999999998
2017-05-28T20:05:15.313Z,23.621332
2017-05-28T20:05:50.357Z,23.621332
2017-05-28T20:06:25.318Z,23.621332
2017-05-28T20:07:00.353Z,23.621332
2017-05-28T20:07:35.319Z,23.621332
2017-05-28T20:08:10.331Z,23.621332
2017-05-28T20:08:45.333Z,23.558853999999997
2017-05-28T20:09:20.385Z,23.558853999999997
2017-05-28T20:09:55.325Z,23.558853999999997
2017-05-28T20:10:30.349Z,23.558853999999997
2017-05-28T20:11:05.340Z,23.558853999999997
2017-05-28T20:11:40.332Z,23.496375999999998
2017-05-28T20:12:15.322Z,23.433898
2017-05-28T20:12:50.347Z,23.433898
2017-05-28T20:13:25.349Z,23.433898
2017-05-28T20:14:00.355Z,23.433898
2017-05-28T20:14:35.454Z,23.496375999999998
2017-05-28T20:15:10.333Z,23.433898
2017-05-28T20:15:45.338Z,23.433898
2017-05-28T20:16:20.346Z,23.371419999999997
2017-05-28T20:16:56.313Z,23.433898
2017-05-28T20:17:30.356Z,23.433898
2017-05-28T20:18:05.331Z,23.433898
2017-05-28T20:18:40.355Z,23.371419999999997
2017-05-28T20:19:15.344Z,23.371419999999997
2017-05-28T20:19:50.369Z,23.371419999999997
2017-05-28T20:20:25.366Z,23.371419999999997
2017-05-28T20:21:00.358Z,23.433898
2017-05-28T20:21:35.350Z,23.433898
2017-05-28T20:22:10.377Z,23.433898
2017-05-28T20:22:45.351Z,23.496375999999998
2017-05-28T20:23:20.389Z,23.496375999999998
2017-05-28T20:23:55.345Z,23.496375999999998
2017-05-28T20:24:30.359Z,23.433898
2017-05-28T20:25:05.348Z,23.433898
2017-05-28T20:25:40.356Z,23.433898
2017-05-28T20:26:15.368Z,23.433898
2017-05-28T20:26:50.387Z,23.433898
2017-05-28T20:27:25.366Z,23.371419999999997
2017-05-28T20:28:00.382Z,23.433898
2017-05-28T20:28:35.365Z,23.433898
2017-05-28T20:29:10.362Z,23.433898
2017-05-28T20:29:45.376Z,23.433898
2017-05-28T20:30:20.363Z,23.496375999999998
2017-05-28T20:30:54.591Z,23.496375999999998
2017-05-28T20:31:29.423Z,23.496375999999998
2017-05-28T20:32:04.385Z,23.496375999999998
2017-05-28T20:32:39.374Z,23.496375999999998
2017-05-28T20:33:14.372Z,23.496375999999998
2017-05-28T20:33:49.409Z,23.496375999999998
2017-05-28T20:34:24.381Z,23.496375999999998
2017-05-28T20:34:59.504Z,23.433898
2017-05-28T20:36:09.505Z,23.496375999999998
2017-05-28T20:36:45.393Z,23.371419999999997
2017-05-28T20:37:19.403Z,23.308942
2017-05-28T20:37:56.213Z,23.308942
2017-05-28T20:47:58.745Z,22.683628
2017-05-28T20:58:03.587Z,22.433715999999997
2017-05-28T21:08:08.667Z,22.121326
2017-05-28T21:18:13.600Z,22.121326
2017-05-28T21:28:18.753Z,21.933892
2017-05-28T21:38:23.643Z,21.559023999999997
2017-05-28T21:48:28.683Z,21.621502
2017-05-28T21:58:33.763Z,21.434068
2017-05-28T22:08:38.747Z,21.184155999999998
2017-05-28T22:18:43.804Z,21.059199999999997
2017-05-28T22:28:48.781Z,21.059199999999997
2017-05-28T22:38:53.762Z,20.996722
2017-05-28T22:48:58.783Z,20.934244
2017-05-28T22:59:03.812Z,20.809288
2017-05-28T23:09:08.913Z,20.871765999999997
2017-05-28T23:19:13.959Z,20.496364
2017-05-28T23:29:18.957Z,20.433885999999998
2017-05-28T23:39:23.944Z,20.496364
2017-05-28T23:49:28.904Z,20.183974
2017-05-28T23:59:33.912Z,19.871584
